createdAt,value
2019-05-12T00:00:11.714Z,7.45
2019-05-12T00:03:12.334Z,7.40
2019-05-12T00:06:13.609Z,7.92
2019-05-12T00:09:14.385Z,7.80
2019-05-12T00:12:15.179Z,7.77
2019-05-12T00:15:15.836Z,7.90
2019-05-12T00:18:18.069Z,7.70
2019-05-12T00:21:19.177Z,7.47
2019-05-12T00:24:20.342Z,7.20
2019-05-12T00:27:23.470Z,7.33
2019-05-12T00:30:43.806Z,7.50
2019-05-12T00:33:45.275Z,7.53
2019-05-12T00:36:48.338Z,7.50
2019-05-12T00:39:49.028Z,8.20
2019-05-12T00:42:49.850Z,8.20
2019-05-12T00:45:50.424Z,7.93
2019-05-12T00:48:51.517Z,8.33
2019-05-12T00:51:52.577Z,8.50
2019-05-12T00:54:53.297Z,9.03
2019-05-12T00:57:54.602Z,9.47
2019-05-12T01:00:55.440Z,9.43
2019-05-12T01:03:57.933Z,9.73
2019-05-12T01:06:59.718Z,10.43
2019-05-12T01:10:01.415Z,10.17
2019-05-12T01:13:03.622Z,9.90
2019-05-12T01:16:05.145Z,10.63
2019-05-12T01:19:07.997Z,11.47
2019-05-12T01:22:08.926Z,11.50
2019-05-12T01:25:09.836Z,11.67
2019-05-12T01:28:11.016Z,11.45
2019-05-12T01:31:13.412Z,11.40
2019-05-12T01:34:14.837Z,11.50
2019-05-12T01:37:34.896Z,11.30
2019-05-12T01:40:39.897Z,11.67
2019-05-12T01:43:41.477Z,11.80
2019-05-12T01:46:42.086Z,12.40
2019-05-12T01:49:43.074Z,12.53
2019-05-12T01:52:43.801Z,12.00
2019-05-12T01:55:44.527Z,11.87
2019-05-12T01:58:45.604Z,12.43
2019-05-12T02:01:48.634Z,12.60
2019-05-12T02:07:32.526Z,12.90
2019-05-12T02:10:38.941Z,12.17
2019-05-12T02:13:39.552Z,14.33
2019-05-12T02:16:40.280Z,12.80
2019-05-12T02:19:41.711Z,13.18
2019-05-12T02:22:42.809Z,13.20
2019-05-12T02:25:43.898Z,13.80
2019-05-12T02:28:44.929Z,13.55
2019-05-12T02:31:45.965Z,14.17
2019-05-12T02:34:47.005Z,13.77
2019-05-12T02:37:48.252Z,14.07
2019-05-12T02:40:49.124Z,14.20
2019-05-12T02:43:49.892Z,15.20
2019-05-12T02:46:50.935Z,15.77
2019-05-12T02:49:54.478Z,14.70
2019-05-12T02:52:54.773Z,14.93
2019-05-12T02:55:55.737Z,14.53
2019-05-12T02:58:56.729Z,15.33
2019-05-12T03:01:58.206Z,15.37
2019-05-12T03:04:59.398Z,14.77
2019-05-12T03:08:04.900Z,15.17
2019-05-12T03:11:06.616Z,15.20
2019-05-12T03:14:07.613Z,14.93
2019-05-12T03:17:08.224Z,16.00
2019-05-12T03:20:09.313Z,15.13
2019-05-12T03:23:10.307Z,15.80
2019-05-12T03:26:15.114Z,16.27
2019-05-12T03:29:15.224Z,15.80
2019-05-12T03:32:17.989Z,16.50
2019-05-12T03:35:19.523Z,17.00
2019-05-12T03:38:20.309Z,17.00
2019-05-12T03:41:21.471Z,18.25
2019-05-12T03:44:25.144Z,16.95
2019-05-12T03:47:25.788Z,17.83
2019-05-12T03:50:26.801Z,18.37
2019-05-12T03:53:27.710Z,18.93
2019-05-12T03:56:16.590Z,19.70
2019-05-12T03:59:25.568Z,19.07
2019-05-12T04:02:27.237Z,18.92
2019-05-12T04:05:27.904Z,20.43
2019-05-12T04:08:29.088Z,20.97
2019-05-12T04:11:30.090Z,19.13
2019-05-12T04:14:34.361Z,20.80
2019-05-12T04:17:34.977Z,20.00
2019-05-12T04:20:36.663Z,19.33
2019-05-12T04:23:37.830Z,21.17
2019-05-12T04:26:38.649Z,19.90
2019-05-12T04:29:40.130Z,20.53
2019-05-12T04:32:40.872Z,21.03
2019-05-12T04:35:44.931Z,19.93
2019-05-12T04:38:45.215Z,20.37
2019-05-12T04:41:46.079Z,20.97
2019-05-12T04:44:47.132Z,20.97
2019-05-12T04:47:48.100Z,19.67
2019-05-12T04:50:49.140Z,20.30
2019-05-12T04:53:50.585Z,20.13
2019-05-12T04:56:54.948Z,19.20
2019-05-12T04:59:55.003Z,19.57
2019-05-12T05:02:56.033Z,20.37
2019-05-12T05:05:57.331Z,19.43
2019-05-12T05:08:58.157Z,19.40
2019-05-12T05:11:59.186Z,18.83
2019-05-12T05:17:44.078Z,18.60
2019-05-12T05:20:45.016Z,18.50
2019-05-12T05:23:46.464Z,18.53
2019-05-12T05:26:47.850Z,18.20
2019-05-12T05:29:48.717Z,18.37
2019-05-12T05:32:49.613Z,18.70
2019-05-12T05:35:50.314Z,18.03
2019-05-12T05:38:59.653Z,18.37
2019-05-12T05:41:53.860Z,18.73
2019-05-12T05:44:55.645Z,17.40
2019-05-12T05:47:59.597Z,16.63
2019-05-12T05:51:04.395Z,17.40
2019-05-12T05:54:04.035Z,17.13
2019-05-12T05:57:06.170Z,16.13
2019-05-12T06:00:16.419Z,15.97
2019-05-12T06:03:14.870Z,15.47
2019-05-12T06:06:15.247Z,14.37
2019-05-12T06:09:16.077Z,14.27
2019-05-12T06:12:17.036Z,13.40
2019-05-12T06:15:18.101Z,13.90
2019-05-12T06:21:09.020Z,13.40
2019-05-12T06:24:15.280Z,12.87
2019-05-12T06:27:19.496Z,13.75
2019-05-12T06:30:16.138Z,13.30
2019-05-12T06:33:22.724Z,12.63
2019-05-12T06:36:24.162Z,13.30
2019-05-12T06:39:23.695Z,14.37
2019-05-12T06:42:24.466Z,13.03
2019-05-12T06:45:28.275Z,13.48
2019-05-12T06:48:30.357Z,13.53
2019-05-12T06:51:33.865Z,14.13
2019-05-12T06:54:34.929Z,13.90
2019-05-12T06:57:39.960Z,13.73
2019-05-12T07:00:38.828Z,14.37
2019-05-12T07:03:40.321Z,14.10
2019-05-12T07:06:41.032Z,13.90
2019-05-12T07:09:32.665Z,13.73
2019-05-12T07:12:43.606Z,13.80
2019-05-12T07:15:40.156Z,13.43
2019-05-12T07:18:38.602Z,12.75
2019-05-12T07:21:39.344Z,13.23
2019-05-12T07:24:40.855Z,12.15
2019-05-12T07:27:36.800Z,12.70
2019-05-12T07:30:40.671Z,11.67
2019-05-12T07:33:45.065Z,11.63
2019-05-12T07:36:44.387Z,11.55
2019-05-12T07:39:49.295Z,11.13
2019-05-12T07:42:47.767Z,11.50
2019-05-12T07:45:56.571Z,11.13
2019-05-12T07:48:51.271Z,11.80
2019-05-12T07:51:54.250Z,11.30
2019-05-12T07:54:56.054Z,10.80
2019-05-12T07:58:03.963Z,11.60
2019-05-12T08:01:07.688Z,11.67
2019-05-12T08:04:04.561Z,11.27
2019-05-12T08:07:06.058Z,11.90
2019-05-12T08:10:15.207Z,11.60
2019-05-12T08:13:09.738Z,10.60
2019-05-12T08:16:10.396Z,10.90
2019-05-12T08:19:14.971Z,10.03
2019-05-12T08:22:18.740Z,10.53
2019-05-12T08:25:18.884Z,10.75
2019-05-12T08:32:36.853Z,9.10
2019-05-12T08:35:38.418Z,9.60
2019-05-12T08:38:39.675Z,8.70
2019-05-12T08:41:40.868Z,9.23
2019-05-12T08:44:43.991Z,9.17
2019-05-12T08:47:44.565Z,8.73
2019-05-12T08:50:46.100Z,8.20
2019-05-12T08:53:47.281Z,8.23
2019-05-12T08:56:51.113Z,7.77
2019-05-12T08:59:38.143Z,7.53
2019-05-12T09:02:50.526Z,7.20
2019-05-12T09:05:48.388Z,7.30
2019-05-12T09:08:49.866Z,6.90
2019-05-12T09:11:50.443Z,6.90
2019-05-12T09:14:51.014Z,6.60
2019-05-12T09:17:56.659Z,6.30
2019-05-12T09:20:55.682Z,6.57
2019-05-12T09:23:56.908Z,5.20
2019-05-12T09:26:58.922Z,5.50
2019-05-12T09:30:05.386Z,5.30
2019-05-12T09:33:04.375Z,5.17
2019-05-12T09:36:05.882Z,5.30
2019-05-12T09:39:07.838Z,5.10
2019-05-12T09:42:09.172Z,5.07
2019-05-12T09:45:10.484Z,5.20
2019-05-12T09:48:13.864Z,5.00
2019-05-12T09:51:17.102Z,5.00
2019-05-12T09:54:16.961Z,4.60
2019-05-12T09:57:18.041Z,5.53
2019-05-12T10:00:19.012Z,5.53
2019-05-12T10:03:20.119Z,4.40
2019-05-12T10:06:21.504Z,4.27
2019-05-12T10:09:24.462Z,4.40
2019-05-12T10:12:25.926Z,4.37
2019-05-12T10:15:28.805Z,4.27
2019-05-12T10:18:29.865Z,4.30
2019-05-12T10:21:30.860Z,4.10
2019-05-12T10:24:40.600Z,4.33
2019-05-12T10:27:34.838Z,3.70
2019-05-12T10:33:19.383Z,4.23
2019-05-12T10:36:20.262Z,4.17
2019-05-12T10:39:21.326Z,4.07
2019-05-12T10:42:24.290Z,4.40
2019-05-12T10:45:26.106Z,4.37
2019-05-12T10:48:15.036Z,5.23
2019-05-12T10:51:16.501Z,4.10
2019-05-12T10:54:17.843Z,4.97
2019-05-12T10:57:19.038Z,4.20
2019-05-12T11:00:25.149Z,3.30
2019-05-12T11:03:24.396Z,3.40
2019-05-12T11:06:24.828Z,4.20
2019-05-12T11:09:27.394Z,3.40
2019-05-12T11:12:30.252Z,6.53
2019-05-12T11:15:31.154Z,2.93
2019-05-12T11:18:34.100Z,3.40
2019-05-12T11:21:35.672Z,3.03
2019-05-12T11:24:39.025Z,3.37
2019-05-12T11:27:44.922Z,3.17
2019-05-12T11:30:46.134Z,2.90
2019-05-12T11:33:51.032Z,3.03
2019-05-12T11:36:54.395Z,3.07
2019-05-12T11:39:55.369Z,3.15
2019-05-12T11:43:01.063Z,3.10
2019-05-12T11:46:00.549Z,3.10
2019-05-12T11:49:01.518Z,3.10
2019-05-12T11:52:07.370Z,3.10
2019-05-12T11:55:05.169Z,3.20
2019-05-12T11:58:11.283Z,3.40
2019-05-12T12:01:10.138Z,3.53
2019-05-12T12:04:15.157Z,3.20
2019-05-12T12:07:16.443Z,3.57
2019-05-12T12:10:17.178Z,3.20
2019-05-12T12:13:19.277Z,3.20
2019-05-12T12:16:23.704Z,3.10
2019-05-12T12:19:34.032Z,3.10
2019-05-12T12:22:29.833Z,4.20
2019-05-12T12:25:34.069Z,3.53
2019-05-12T12:28:36.886Z,2.90
2019-05-12T12:31:58.424Z,2.98
2019-05-12T12:35:00.880Z,3.83
2019-05-12T12:38:03.576Z,3.53
2019-05-12T12:41:05.235Z,3.67
2019-05-12T12:44:06.139Z,4.30
2019-05-12T12:47:06.949Z,3.57
2019-05-12T12:50:07.842Z,3.67
2019-05-12T12:53:08.871Z,3.80
2019-05-12T12:56:09.958Z,4.27
2019-05-12T12:59:11.994Z,3.37
2019-05-12T13:02:14.242Z,3.27
2019-05-12T13:05:15.427Z,3.23
2019-05-12T13:08:16.641Z,2.80
2019-05-12T13:11:32.188Z,3.30
2019-05-12T13:14:23.438Z,3.53
2019-05-12T13:17:27.360Z,3.30
2019-05-12T13:20:27.378Z,3.70
2019-05-12T13:23:37.991Z,3.30
2019-05-12T13:26:31.404Z,3.33
2019-05-12T13:29:38.069Z,3.03
2019-05-12T13:32:37.960Z,3.20
2019-05-12T13:35:37.441Z,3.30
2019-05-12T13:38:40.403Z,2.77
2019-05-12T13:41:40.899Z,3.12
2019-05-12T13:47:34.055Z,3.77
2019-05-12T13:53:52.748Z,4.47
2019-05-12T13:56:53.541Z,4.60
2019-05-12T14:00:05.641Z,4.10
2019-05-12T14:03:04.562Z,3.50
2019-05-12T14:06:03.382Z,3.23
2019-05-12T14:08:53.846Z,3.62
2019-05-12T14:12:04.209Z,4.10
2019-05-12T14:14:52.173Z,4.50
2019-05-12T14:18:00.460Z,4.25
2019-05-12T14:21:01.688Z,4.17
2019-05-12T14:24:02.982Z,6.12
2019-05-12T14:27:04.196Z,4.47
2019-05-12T14:29:53.663Z,4.63
2019-05-12T14:33:03.452Z,4.42
2019-05-12T14:35:53.859Z,4.47
2019-05-12T14:42:13.606Z,4.87
2019-05-12T14:45:19.367Z,4.60
2019-05-12T14:48:17.634Z,5.05
2019-05-12T14:51:18.873Z,4.20
2019-05-12T14:54:20.551Z,4.37
2019-05-12T14:57:21.129Z,4.20
2019-05-12T15:00:24.145Z,3.70
2019-05-12T15:03:25.092Z,4.13
2019-05-12T15:06:29.573Z,4.27
2019-05-12T15:09:28.753Z,5.10
2019-05-12T15:12:29.906Z,4.43
2019-05-12T15:15:30.434Z,4.73
2019-05-12T15:18:31.245Z,9.17
2019-05-12T15:21:33.972Z,16.80
2019-05-12T15:24:35.511Z,4.07
2019-05-12T15:27:44.254Z,4.12
2019-05-12T15:30:39.912Z,4.33
2019-05-12T15:33:40.932Z,3.40
2019-05-12T15:36:43.690Z,3.47
2019-05-12T15:39:44.642Z,3.73
2019-05-12T15:42:46.732Z,5.17
2019-05-12T15:45:49.115Z,7.30
2019-05-12T15:48:50.967Z,5.33
2019-05-12T15:51:55.230Z,11.87
2019-05-12T15:54:55.002Z,4.47
2019-05-12T15:57:56.226Z,3.72
2019-05-12T16:00:45.069Z,4.72
2019-05-12T16:03:54.326Z,5.17
2019-05-12T16:07:03.951Z,3.43
2019-05-12T16:10:06.258Z,3.47
2019-05-12T16:13:07.154Z,3.17
2019-05-12T16:16:08.065Z,3.30
2019-05-12T16:19:08.802Z,3.63
2019-05-12T16:22:09.622Z,3.50
2019-05-12T16:25:10.225Z,3.70
2019-05-12T16:28:15.141Z,3.30
2019-05-12T16:31:14.506Z,4.10
2019-05-12T16:34:15.209Z,2.80
2019-05-12T16:37:16.379Z,3.00
2019-05-12T16:40:17.083Z,2.70
2019-05-12T16:43:17.886Z,2.30
2019-05-12T16:46:19.306Z,2.23
2019-05-12T16:49:27.346Z,2.43
2019-05-12T16:52:24.380Z,2.33
2019-05-12T16:55:25.861Z,2.20
2019-05-12T16:58:32.729Z,3.80
2019-05-12T17:01:30.289Z,3.07
2019-05-12T17:04:33.227Z,1.87
2019-05-12T17:07:34.447Z,2.00
2019-05-12T17:10:36.205Z,1.53
2019-05-12T17:13:36.921Z,1.80
2019-05-12T17:16:41.687Z,1.67
2019-05-12T17:19:43.196Z,1.70
2019-05-12T17:22:53.695Z,1.40
2019-05-12T17:25:46.145Z,1.50
2019-05-12T17:28:46.716Z,1.73
2019-05-12T17:31:47.428Z,1.67
2019-05-12T17:34:48.187Z,1.53
2019-05-12T17:37:48.979Z,1.57
2019-05-12T17:40:55.253Z,1.62
2019-05-12T17:44:00.480Z,1.80
2019-05-12T17:46:55.876Z,1.60
2019-05-12T17:50:00.413Z,2.03
2019-05-12T17:53:00.645Z,1.80
2019-05-12T17:56:04.617Z,2.25
2019-05-12T17:59:04.769Z,2.50
2019-05-12T18:02:11.479Z,2.30
2019-05-12T18:05:12.320Z,2.67
2019-05-12T18:08:11.238Z,3.83
2019-05-12T18:11:15.818Z,6.20
2019-05-12T18:14:15.526Z,3.40
2019-05-12T18:17:16.330Z,2.80
2019-05-12T18:20:17.782Z,2.90
2019-05-12T18:23:19.858Z,2.30
2019-05-12T18:26:21.818Z,2.00
2019-05-12T18:29:23.649Z,1.87
2019-05-12T18:32:25.032Z,1.80
2019-05-12T18:35:25.932Z,1.95
2019-05-12T18:38:26.999Z,1.97
2019-05-12T18:41:27.889Z,1.90
2019-05-12T18:44:31.206Z,3.00
2019-05-12T18:47:35.736Z,3.98
2019-05-12T18:50:34.746Z,4.93
2019-05-12T18:53:35.414Z,4.93
2019-05-12T18:56:36.034Z,2.43
2019-05-12T18:59:37.170Z,2.50
2019-05-12T19:02:38.896Z,3.17
2019-05-12T19:05:40.026Z,2.50
2019-05-12T19:08:41.023Z,2.07
2019-05-12T19:11:46.391Z,1.87
2019-05-12T19:14:45.286Z,2.60
2019-05-12T19:17:46.648Z,2.10
2019-05-12T19:20:48.275Z,2.13
2019-05-12T19:23:49.658Z,1.98
2019-05-12T19:29:38.650Z,2.00
2019-05-12T19:32:36.955Z,2.03
2019-05-12T19:35:38.173Z,2.40
2019-05-12T19:38:40.446Z,2.40
2019-05-12T19:41:43.493Z,2.40
2019-05-12T19:44:44.499Z,1.83
2019-05-12T19:47:45.300Z,2.00
2019-05-12T19:50:52.821Z,2.00
2019-05-12T19:53:49.789Z,1.83
2019-05-12T19:56:50.547Z,1.80
2019-05-12T19:59:53.375Z,2.00
2019-05-12T20:05:37.548Z,3.30
2019-05-12T20:08:38.431Z,2.60
2019-05-12T20:11:39.232Z,3.00
2019-05-12T20:14:40.013Z,2.90
2019-05-12T20:17:40.981Z,2.77
2019-05-12T20:20:44.482Z,2.60
2019-05-12T20:23:45.504Z,2.87
2019-05-12T20:26:46.911Z,2.00
2019-05-12T20:29:47.842Z,1.90
2019-05-12T20:32:48.989Z,1.90
2019-05-12T20:35:49.684Z,1.90
2019-05-12T20:38:53.718Z,2.10
2019-05-12T20:41:54.486Z,3.33
2019-05-12T20:45:02.361Z,2.50
2019-05-12T20:47:59.740Z,3.20
2019-05-12T20:51:03.324Z,2.87
2019-05-12T20:54:05.515Z,2.80
2019-05-12T20:57:08.152Z,3.10
2019-05-12T21:00:08.788Z,2.10
2019-05-12T21:03:10.260Z,2.97
2019-05-12T21:06:10.970Z,2.50
2019-05-12T21:09:14.165Z,2.57
2019-05-12T21:12:14.506Z,4.10
2019-05-12T21:15:20.173Z,4.30
2019-05-12T21:18:18.790Z,4.37
2019-05-12T21:21:19.595Z,4.60
2019-05-12T21:24:24.293Z,3.90
2019-05-12T21:27:24.826Z,3.87
2019-05-12T21:30:25.875Z,3.27
2019-05-12T21:33:31.460Z,2.83
2019-05-12T21:36:29.677Z,2.83
2019-05-12T21:39:33.444Z,3.08
2019-05-12T21:42:34.061Z,3.23
2019-05-12T21:45:34.968Z,2.77
2019-05-12T21:48:35.536Z,3.10
2019-05-12T21:51:36.656Z,2.60
2019-05-12T21:54:39.548Z,2.90
2019-05-12T21:57:39.730Z,3.00
2019-05-12T22:00:40.819Z,3.27
2019-05-12T22:03:45.973Z,3.57
2019-05-12T22:06:44.902Z,3.50
2019-05-12T22:09:47.150Z,3.90
2019-05-12T22:12:48.744Z,3.80
2019-05-12T22:15:51.471Z,3.20
2019-05-12T22:18:58.788Z,3.20
2019-05-12T22:21:55.617Z,3.03
2019-05-12T22:24:57.052Z,3.17
2019-05-12T22:27:59.238Z,2.90
2019-05-12T22:31:01.325Z,2.90
2019-05-12T22:34:04.041Z,2.63
2019-05-12T22:37:05.379Z,2.97
2019-05-12T22:40:17.289Z,2.67
2019-05-12T22:43:09.189Z,2.40
2019-05-12T22:46:10.030Z,2.40
2019-05-12T22:49:16.852Z,2.60
2019-05-12T22:52:15.657Z,2.70
2019-05-12T22:55:21.046Z,2.90
2019-05-12T22:58:22.481Z,2.60
2019-05-12T23:01:23.397Z,3.10
2019-05-12T23:04:26.064Z,2.83
2019-05-12T23:07:29.671Z,3.40
2019-05-12T23:10:30.085Z,3.63
2019-05-12T23:13:32.266Z,3.60
2019-05-12T23:16:33.897Z,3.33
2019-05-12T23:19:34.673Z,3.00
2019-05-12T23:22:36.881Z,2.58
2019-05-12T23:25:37.516Z,2.57
2019-05-12T23:28:40.601Z,2.83
2019-05-12T23:31:41.566Z,3.17
2019-05-12T23:34:45.030Z,2.90
2019-05-12T23:37:45.471Z,2.87
2019-05-12T23:40:46.514Z,2.70
2019-05-12T23:43:47.368Z,2.50
2019-05-12T23:46:48.581Z,2.70
2019-05-12T23:49:49.685Z,2.90
2019-05-12T23:52:50.639Z,2.80
2019-05-12T23:55:51.515Z,2.73
2019-05-12T23:58:53.840Z,2.80
